Flight Track Log - Related Links

Times and Time Zones

All times are in EDT time to prevent confusion due to time zone crossing. See the UPS1191 flight status page for this flight to view local times or setup timezone preferences in your user account.

Time Position Orientation Groundspeed Altitude Reporting Facility
EDT Latitude Longitude Course Direction KTS MPH feet Rate Location/Type
Thu 10:25:54 PM 39.8619 -75.2506 North  Level FlightAware ADS-B (KPHL)
Thu 10:48:25 PM 39.8633 -75.2630 256° West 159 183 600 82 Climbing FlightAware ADS-B (KPHL)
Thu 10:49:10 PM 39.8509 -75.3031 246° West 172 198 1,900 1,619 Climbing FlightAware ADS-B (KWWD)
Thu 10:49:28 PM 39.8443 -75.3196 242° Southwest 204 235 2,300 1,680 Climbing FlightAware ADS-B (KPHL)
Thu 10:49:35 PM 39.8402 -75.3300 245° Southwest 203 234 2,600 3,545 Climbing FlightAware ADS-B (KWWD)
Thu 10:49:50 PM 39.8318 -75.3513 243° Southwest 211 243 3,600 2,743 Climbing FlightAware ADS-B
Thu 10:50:10 PM 39.8244 -75.3705 248° West 225 259 4,200 2,143 Climbing FlightAware ADS-B (KWWD)
Thu 10:50:18 PM 39.8207 -75.3870 265° West 248 285 4,600 1,667 Climbing FlightAware ADS-B
Thu 10:50:28 PM 39.8207 -75.3963 275° West 252 290 4,700 1,800 Climbing FlightAware ADS-B (KPHL)
Thu 10:50:38 PM 39.8241 -75.4107 299° West 258 297 5,200 3,158 Climbing FlightAware ADS-B (KWWD)
Thu 10:50:47 PM 39.8305 -75.4222 315° West 251 289 5,700 3,200 Climbing FlightAware ADS-B (KWWD)
Thu 10:50:53 PM 39.8335 -75.4256 325° Northwest 256 295 6,000 4,800 Climbing FlightAware ADS-B (EGBO)
Thu 10:50:57 PM 39.8400 -75.4308 339° North 255 293 6,500 3,900 Climbing FlightAware ADS-B (EGBO)
Thu 10:51:13 PM 39.8575 -75.4383 346° North 252 290 7,300 2,909 Climbing FlightAware ADS-B (KPHL)
Thu 10:51:30 PM 39.8764 -75.4445 345° North 253 291 8,100 3,333 Climbing FlightAware ADS-B (KWWD)
Thu 10:51:49 PM 39.9040 -75.4544 346° North 266 306 9,300 2,706 Climbing FlightAware ADS-B
Thu 10:52:21 PM 39.9098 -75.4563 347° North 275 316 10,400 2,000 Climbing FlightAware ADS-B (EGBO)
Thu 10:52:46 PM 39.9713 -75.4758 346° North 301 346 11,200 1,745 Climbing FlightAware ADS-B (EGBO)
Thu 10:53:16 PM 40.0136 -75.4906 344° North 305 351 12,000 1,200 Climbing FlightAware ADS-B (KWWD)
Thu 10:53:46 PM 40.0552 -75.5055 345° North 304 350 12,400 973 Climbing FlightAware ADS-B (KWWD)
Thu 10:53:53 PM 40.0650 -75.5089 345° North 315 362 12,600 1,050 Climbing FlightAware ADS-B (KWWD)
Thu 10:54:26 PM 40.1135 -75.5250 345° North 322 371 13,100 469 Climbing FlightAware ADS-B (KPHL)
Thu 10:54:57 PM 40.1582 -75.5395 347° North 323 372 13,100 329 Level FlightAware ADS-B (KPHL)
Thu 10:55:39 PM 40.2177 -75.5609 336° Northwest 314 361 13,500 612 Climbing FlightAware ADS-B (KWWD)
Thu 10:55:46 PM 40.2259 -75.5675 324° Northwest 319 367 13,600 1,714 Climbing FlightAware ADS-B (KWWD)
Thu 10:56:00 PM 40.2412 -75.5875 311° West 317 365 14,100 2,323 Climbing FlightAware ADS-B (KWWD)
Thu 10:56:17 PM 40.2562 -75.6135 306° West 327 376 14,800 1,320 Climbing FlightAware ADS-B (KPHL)
Thu 10:56:50 PM 40.2912 -75.6648 311° West 369 425 15,200 1,125 Climbing FlightAware ADS-B (KWWD)
Thu 10:57:21 PM 40.3278 -75.7201 310° West 383 441 16,000 1,770 Climbing FlightAware ADS-B (KWWD)
Thu 10:57:51 PM 40.3628 -75.7738 311° West 395 455 17,000 1,082 Climbing FlightAware ADS-B (KWWD)
Thu 10:58:22 PM 40.4005 -75.8300 311° West 398 458 17,100 100 Climbing FlightAware ADS-B (KWWD)
Thu 10:58:51 PM 40.4325 -75.8856 300° West 393 452 17,100  Level FlightAware ADS-B (KWWD)
Thu 10:59:03 PM 40.4412 -75.9106 289° West 393 452 17,100  Level FlightAware ADS-B (KWWD)
Thu 10:59:38 PM 40.4553 -75.9855 283° West 394 453 17,100 536 Level FlightAware ADS-B (KWWD)
Thu 10:59:59 PM 40.4644 -76.0413 282° West 406 467 17,600 1,800 Climbing FlightAware ADS-B (KWWD)
Thu 11:00:38 PM 40.4795 -76.1348 282° West 408 470 18,900 2,110 Climbing FlightAware ADS-B (KWWD)
Thu 11:01:30 PM 40.4997 -76.2617 280° West 409 471 20,800 2,024 Climbing FlightAware ADS-B (KWWD)
Thu 11:02:01 PM 40.5101 -76.3363 279° West 413 475 21,700 2,057 Climbing FlightAware ADS-B (KWWD)
Thu 11:02:40 PM 40.5231 -76.4331 279° West 412 474 23,200 2,075 Climbing FlightAware ADS-B (KWWD)
Thu 11:03:48 PM 40.5462 -76.6005 279° West 413 475 25,400 1,875 Climbing FlightAware ADS-B (KWWD)
Thu 11:04:32 PM 40.5597 -76.6987 279° West 414 476 26,700 2,036 Climbing FlightAware ADS-B (KWWD)
Thu 11:04:44 PM 40.5653 -76.7389 279° West 414 476 27,300 2,063 Climbing FlightAware ADS-B (KWWD)
Thu 11:05:04 PM 40.5723 -76.7897 279° West 414 476 27,800 2,636 Climbing FlightAware ADS-B (KWWD)
Thu 11:05:50 PM 40.5898 -76.9172 280° West 397 457 30,200 2,675 Climbing FlightAware ADS-B
Thu 11:06:27 PM 40.6019 -77.0065 280° West 395 455 31,500 2,026 Climbing FlightAware ADS-B
Thu 11:07:07 PM 40.6148 -77.1019 280° West 391 450 32,800 1,895 Climbing FlightAware ADS-B
Thu 11:07:43 PM 40.6258 -77.1837 280° West 388 447 33,900 720 Climbing FlightAware ADS-B
Thu 11:08:47 PM 40.6431 -77.3149 279° West 414 476 34,000 56 Climbing FlightAware ADS-B (KWWD)
Thu 11:09:30 PM 40.6557 -77.4117 280° West 383 441 34,000  Level FlightAware ADS-B (KWWD)
Thu 11:10:21 PM 40.6712 -77.5306 280° West 389 448 34,000  Level FlightAware ADS-B (KWWD)
Thu 11:11:24 PM 40.6926 -77.6960 280° West 390 449 34,000  Level FlightAware ADS-B
Thu 11:11:53 PM 40.6933 -77.7011 280° West 388 447 34,000  Level FlightAware ADS-B (CYYZ)
Thu 11:12:22 PM 40.7077 -77.8127 280° West 388 447 34,000  Level FlightAware ADS-B (CYYZ)
Thu 11:12:49 PM 40.7157 -77.8756 280° West 388 447 34,000  Level FlightAware ADS-B (CYYZ)
Thu 11:13:19 PM 40.7247 -77.9461 280° West 389 448 34,000  Level FlightAware ADS-B (KWWD)
Thu 11:13:53 PM 40.7346 -78.0251 280° West 389 448 34,000  Level FlightAware ADS-B (CYYZ)
Thu 11:14:23 PM 40.7432 -78.0936 280° West 388 447 34,000  Level FlightAware ADS-B (CYYZ)
Thu 11:14:41 PM 40.7486 -78.1359 279° West 388 447 34,000  Level FlightAware ADS-B (KWWD)
Thu 11:14:54 PM 40.7515 -78.1592 280° West 387 445 34,000  Level FlightAware ADS-B (CYYZ)
Thu 11:15:23 PM 40.7605 -78.2313 280° West 388 447 34,000  Level FlightAware ADS-B (CYYZ)
Thu 11:15:54 PM 40.7696 -78.3042 280° West 388 447 34,000  Level FlightAware ADS-B (CYYZ)
Thu 11:16:19 PM 40.7772 -78.3665 278° West 389 448 34,000  Level FlightAware ADS-B (KWWD)
Thu 11:16:24 PM 40.7783 -78.3758 280° West 389 448 34,000  Level FlightAware ADS-B (CYYZ)
Thu 11:16:54 PM 40.7865 -78.4438 279° West 390 449 34,000  Level FlightAware ADS-B (CYYZ)
Thu 11:17:24 PM 40.7950 -78.5156 279° West 390 449 34,000  Level FlightAware ADS-B (CYYZ)
Thu 11:17:54 PM 40.8034 -78.5860 279° West 389 448 34,000  Level FlightAware ADS-B (CYYZ)
Thu 11:18:24 PM 40.8115 -78.6541 279° West 389 448 34,000  Level FlightAware ADS-B (CYYZ)
Thu 11:18:54 PM 40.8202 -78.7277 279° West 389 448 34,000  Level FlightAware ADS-B (CYYZ)
Thu 11:19:24 PM 40.8279 -78.7933 279° West 389 448 34,000  Level FlightAware ADS-B (CYYZ)
Thu 11:19:53 PM 40.8368 -78.8683 279° West 389 448 34,000  Level FlightAware ADS-B (CYYZ)
Thu 11:20:01 PM 40.8389 -78.8866 278° West 389 448 34,000  Level FlightAware ADS-B (KWWD)
Thu 11:20:23 PM 40.8448 -78.9373 279° West 389 448 34,000  Level FlightAware ADS-B (CYYZ)
Thu 11:20:54 PM 40.8533 -79.0096 279° West 389 448 34,000  Level FlightAware ADS-B (CYYZ)
Thu 11:21:23 PM 40.8614 -79.0795 279° West 389 448 34,000  Level FlightAware ADS-B (CYYZ)
Thu 11:21:54 PM 40.8694 -79.1495 279° West 390 449 34,000  Level FlightAware ADS-B (CYYZ)
Thu 11:22:23 PM 40.8772 -79.2182 279° West 390 449 34,000  Level FlightAware ADS-B (CYYZ)
Thu 11:22:53 PM 40.8851 -79.2893 279° West 390 449 34,000  Level FlightAware ADS-B (CYYZ)
Thu 11:23:24 PM 40.8932 -79.3622 279° West 390 449 34,000  Level FlightAware ADS-B (CYYZ)
Thu 11:23:54 PM 40.9011 -79.4320 279° West 391 450 34,000  Level FlightAware ADS-B (CYYZ)
Thu 11:24:24 PM 40.9091 -79.5032 279° West 391 450 34,000  Level FlightAware ADS-B (CYYZ)
Thu 11:24:35 PM 40.9120 -79.5295 278° West 391 450 34,000  Level FlightAware ADS-B (EGXP / SQZ)
Thu 11:24:53 PM 40.9168 -79.5729 279° West 391 450 34,000  Level FlightAware ADS-B (CYYZ)
Thu 11:25:09 PM 40.9209 -79.6102 278° West 391 450 34,000  Level FlightAware ADS-B (EPLB / LUZ)
Thu 11:25:23 PM 40.9247 -79.6447 279° West 391 450 34,000  Level FlightAware ADS-B (CYYZ)
Thu 11:25:43 PM 40.9297 -79.6895 278° West 391 450 34,000  Level FlightAware ADS-B (EGXP / SQZ)
Thu 11:25:53 PM 40.9316 -79.7070 279° West 391 450 34,000  Level FlightAware ADS-B (CYYZ)
Thu 11:26:13 PM 40.9375 -79.7604 278° West 392 451 34,000  Level FlightAware ADS-B (EPLB / LUZ)
Thu 11:26:23 PM 40.9401 -79.7845 279° West 392 451 34,000  Level FlightAware ADS-B (CYYZ)
Thu 11:26:43 PM 40.9452 -79.8304 278° West 392 451 34,000  Level FlightAware ADS-B (EGXP / SQZ)
Thu 11:26:53 PM 40.9477 -79.8532 279° West 392 451 34,000  Level FlightAware ADS-B (CYYZ)
Thu 11:27:13 PM 40.9531 -79.9024 278° West 392 451 34,000  Level FlightAware ADS-B (EGXP / SQZ)
Thu 11:27:23 PM 40.9549 -79.9185 279° West 391 450 34,000  Level FlightAware ADS-B (CYYZ)
Thu 11:27:43 PM 40.9609 -79.9739 278° West 392 451 34,000  Level FlightAware ADS-B (EGXP / SQZ)
Thu 11:27:53 PM 40.9634 -79.9966 279° West 391 450 34,000  Level FlightAware ADS-B (CYYZ)
Thu 11:28:13 PM 40.9685 -80.0441 278° West 392 451 34,000  Level FlightAware ADS-B (EGXP / SQZ)
Thu 11:28:24 PM 40.9713 -80.0711 278° West 391 450 34,000  Level FlightAware ADS-B (CYYZ)
Thu 11:28:54 PM 40.9788 -80.1418 278° West 392 451 34,000  Level FlightAware ADS-B (CYYZ)
Thu 11:28:58 PM 40.9796 -80.1503 278° West 393 452 34,000  Level FlightAware ADS-B (EGXP / SQZ)
Thu 11:29:24 PM 40.9863 -80.2134 278° West 392 451 34,000  Level FlightAware ADS-B (CYYZ)
Thu 11:29:42 PM 40.9907 -80.2561 278° West 393 452 34,000  Level FlightAware ADS-B (EGXP / SQZ)
Thu 11:29:53 PM 40.9930 -80.2775 278° West 392 451 34,000  Level FlightAware ADS-B (CYYZ)
Thu 11:30:12 PM 40.9981 -80.3268 278° West 393 452 34,000  Level FlightAware ADS-B (EGXP / SQZ)
Thu 11:30:23 PM 41.0006 -80.3506 278° West 392 451 34,000  Level FlightAware ADS-B (CYYZ)
Thu 11:30:43 PM 41.0055 -80.3985 278° West 393 452 34,000  Level FlightAware ADS-B (EGXP / SQZ)
Thu 11:30:53 PM 41.0081 -80.4242 278° West 392 451 34,000  Level FlightAware ADS-B (CYYZ)
Thu 11:31:23 PM 41.0154 -80.4940 278° West 392 451 34,000  Level FlightAware ADS-B (CYYZ)
Thu 11:31:54 PM 41.0230 -80.5694 278° West 392 451 34,000  Level FlightAware ADS-B (CYYZ)
Thu 11:32:23 PM 41.0284 -80.6226 278° West 392 451 34,000  Level FlightAware ADS-B (CYYZ)
Thu 11:32:53 PM 41.0363 -80.7014 278° West 392 451 34,000  Level FlightAware ADS-B (CYYZ)
Thu 11:32:55 PM 41.0377 -80.7156 277° West 392 451 34,000  Level FlightAware ADS-B (EPLB / LUZ)
Thu 11:33:23 PM 41.0385 -80.7246 278° West 392 451 34,000  Level FlightAware ADS-B (CYYZ)
Thu 11:34:19 PM 41.0572 -80.9144 278° West 391 450 34,000  Level FlightAware ADS-B (CYYZ)
Thu 11:35:14 PM 41.0698 -81.0439 277° West 393 452 34,000  Level FlightAware ADS-B (EPLB / LUZ)
Thu 11:36:42 PM 41.0900 -81.2534 277° West 393 452 34,000  Level FlightAware ADS-B (EPLB / LUZ)
Thu 11:38:21 PM 41.1122 -81.4907 277° West 394 453 34,000  Level FlightAware ADS-B (EPLB / LUZ)
Thu 11:39:17 PM 41.1228 -81.6061 277° West 393 452 34,000  Level Cleveland Center
Thu 11:40:18 PM 41.1372 -81.7633 277° West 393 452 34,000  Level Cleveland Center
Thu 11:41:20 PM 41.1511 -81.9061 277° West 393 452 34,000  Level Cleveland Center
Thu 11:42:21 PM 41.1647 -82.0503 277° West 393 452 34,000  Level Cleveland Center
Thu 11:43:22 PM 41.1767 -82.1911 276° West 393 452 34,000  Level Cleveland Center
Thu 11:44:23 PM 41.1894 -82.3367 277° West 392 451 34,000  Level Cleveland Center
Thu 11:45:24 PM 41.2014 -82.4822 276° West 393 452 34,000  Level Cleveland Center
Thu 11:46:25 PM 41.2139 -82.6278 277° West 393 452 34,000  Level Cleveland Center
Thu 11:47:26 PM 41.2289 -82.7719 278° West 392 451 34,000  Level Cleveland Center
Thu 11:48:27 PM 41.2547 -82.9133 284° West 391 450 34,000  Level Cleveland Center
Thu 11:49:28 PM 41.2831 -83.0544 285° West 391 450 34,000  Level Cleveland Center
Thu 11:50:29 PM 41.3069 -83.1844 284° West 391 450 34,000  Level Cleveland Center
Thu 11:51:30 PM 41.3369 -83.3542 283° West 391 450 34,000  Level Cleveland Center
Thu 11:52:31 PM 41.3619 -83.4953 283° West 391 450 34,000  Level Cleveland Center
Thu 11:58:26 PM 41.5088 -84.3350 283° West 393 452 34,000  Level FlightAware ADS-B
Thu 11:59:20 PM 41.5304 -84.4628 283° West 393 452 34,000  Level FlightAware ADS-B
Fri 12:01:19 AM 41.5782 -84.7471 283° West 393 452 34,000  Level FlightAware ADS-B
Fri 12:01:52 AM 41.5906 -84.8216 283° West 393 452 34,000  Level FlightAware ADS-B
Fri 12:02:22 AM 41.6023 -84.8932 282° West 393 452 34,000  Level FlightAware ADS-B
Fri 12:02:52 AM 41.6145 -84.9691 282° West 393 452 34,000  Level FlightAware ADS-B
Fri 12:03:22 AM 41.6260 -85.0402 282° West 393 452 34,000  Level FlightAware ADS-B
Fri 12:03:52 AM 41.6374 -85.1113 282° West 393 452 34,000  Level FlightAware ADS-B
Fri 12:04:22 AM 41.6476 -85.1748 282° West 393 452 34,000  Level FlightAware ADS-B
Fri 12:04:52 AM 41.6603 -85.2532 282° West 393 452 34,000  Level FlightAware ADS-B
Fri 12:05:22 AM 41.6717 -85.3239 282° West 394 453 34,000  Level FlightAware ADS-B
Fri 12:05:55 AM 41.6831 -85.3953 282° West 394 453 34,000  Level FlightAware ADS-B
Fri 12:06:25 AM 41.6957 -85.4738 282° West 394 453 34,000  Level FlightAware ADS-B
Fri 12:06:57 AM 41.7061 -85.5394 282° West 394 453 34,000  Level FlightAware ADS-B
Fri 12:07:36 AM 41.7224 -85.6426 282° West 392 451 34,000  Level FlightAware ADS-B
Fri 12:08:16 AM 41.7375 -85.7381 282° West 393 452 34,000  Level FlightAware ADS-B
Fri 12:08:47 AM 41.7489 -85.8099 282° West 394 453 34,000  Level FlightAware ADS-B
Fri 12:09:17 AM 41.7600 -85.8794 282° West 393 452 34,000  Level FlightAware ADS-B
Fri 12:10:06 AM 41.7786 -86.0001 282° West 394 453 34,000  Level FlightAware ADS-B
Fri 12:10:13 AM 41.7812 -86.0173 282° West 395 455 34,000  Level FlightAware ADS-B
Fri 12:10:46 AM 41.7931 -86.0953 281° West 395 455 34,000  Level FlightAware ADS-B
Fri 12:11:18 AM 41.8048 -86.1729 281° West 396 456 34,000  Level FlightAware ADS-B
Fri 12:11:48 AM 41.8153 -86.2420 281° West 396 456 34,000  Level FlightAware ADS-B
Fri 12:12:21 AM 41.8277 -86.3236 281° West 396 456 34,000  Level FlightAware ADS-B
Fri 12:12:52 AM 41.8387 -86.3965 281° West 396 456 34,000  Level FlightAware ADS-B
Fri 12:13:22 AM 41.8498 -86.4700 281° West 396 456 34,000  Level FlightAware ADS-B
Fri 12:13:53 AM 41.8607 -86.5435 281° West 396 456 34,000  Level FlightAware ADS-B
Fri 12:14:32 AM 41.8746 -86.6354 281° West 395 455 34,000  Level FlightAware ADS-B
Fri 12:15:03 AM 41.8858 -86.7106 281° West 394 453 34,000  Level FlightAware ADS-B
Fri 12:15:33 AM 41.8963 -86.7800 281° West 395 455 34,000  Level FlightAware ADS-B
Fri 12:16:08 AM 41.9093 -86.8672 281° West 395 455 34,000  Level FlightAware ADS-B
Fri 12:17:03 AM 41.9285 -86.9982 281° West 395 455 34,000  Level FlightAware ADS-B
Fri 12:17:33 AM 41.9387 -87.0703 281° West 395 455 34,000 -105 Level FlightAware ADS-B
Fri 12:18:00 AM 41.9479 -87.1363 281° West 395 455 33,900 -1,322 Descending FlightAware ADS-B
Fri 12:18:32 AM 41.9585 -87.2125 281° West 387 445 32,700 -2,806 Descending FlightAware ADS-B
Fri 12:19:02 AM 41.9688 -87.2843 281° West 393 452 31,000 -3,343 Descending FlightAware ADS-B
Fri 12:19:42 AM 41.9827 -87.3807 281° West 396 456 28,800 -2,889 Descending FlightAware ADS-B
Fri 12:20:23 AM 41.9954 -87.4710 281° West 391 450 27,100 -2,550 Descending FlightAware ADS-B
Fri 12:21:02 AM 42.0080 -87.5607 281° West 382 440 25,400 -2,778 Descending FlightAware ADS-B
Fri 12:21:17 AM 42.0131 -87.5974 281° West 382 440 24,600 -1,680 Descending FlightAware ADS-B
Fri 12:21:52 AM 42.0251 -87.6839 280° West 370 426 24,000 -783 Descending FlightAware ADS-B
Fri 12:22:03 AM 42.0283 -87.7074 281° West 428 493 24,000 -240 Level FlightAware ADS-B
Fri 12:22:42 AM 42.0404 -87.7951 280° West 361 415 23,800 -1,114 Descending FlightAware ADS-B
Fri 12:23:13 AM 42.0491 -87.8581 280° West 354 407 22,700 -2,250 Descending FlightAware ADS-B
Fri 12:24:02 AM 42.0643 -87.9706 280° West 350 403 20,800 -2,308 Descending FlightAware ADS-B
Fri 12:24:44 AM 42.0763 -88.0616 280° West 344 396 19,200 -2,268 Descending FlightAware ADS-B
Fri 12:25:24 AM 42.0874 -88.1453 280° West 340 391 17,700 -2,189 Descending FlightAware ADS-B
Fri 12:25:58 AM 42.0966 -88.2143 280° West 336 387 16,500 -1,688 Descending FlightAware ADS-B
Fri 12:26:28 AM 42.1049 -88.2761 280° West 331 381 15,900 -667 Descending FlightAware ADS-B
Fri 12:27:01 AM 42.1135 -88.3413 280° West 330 380 15,800 -82 Descending FlightAware ADS-B
Fri 12:27:41 AM 42.1245 -88.4235 280° West 331 381 15,800 -771 Level FlightAware ADS-B
Fri 12:28:11 AM 42.1324 -88.4827 280° West 324 373 14,900 -2,000 Descending FlightAware ADS-B
Fri 12:28:41 AM 42.1404 -88.5439 280° West 323 372 13,800 -2,200 Descending FlightAware ADS-B
Fri 12:29:11 AM 42.1477 -88.5998 280° West 322 371 12,700 -2,229 Descending FlightAware ADS-B
Fri 12:29:51 AM 42.1576 -88.6770 280° West 320 368 11,200 -1,886 Descending FlightAware ADS-B
Fri 12:30:21 AM 42.1654 -88.7383 280° West 307 353 10,500 -1,920 Descending FlightAware ADS-B
Fri 12:30:41 AM 42.1703 -88.7767 280° West 296 341 9,600 -1,500 Descending FlightAware ADS-B
Fri 12:31:01 AM 42.1746 -88.8113 280° West 266 306 9,500 -1,077 Descending FlightAware ADS-B
Fri 12:31:20 AM 42.1784 -88.8419 280° West 258 297 8,900 -2,250 Descending FlightAware ADS-B
Fri 12:31:41 AM 42.1827 -88.8749 278° West 260 299 8,000 -2,600 Descending FlightAware ADS-B
Fri 12:31:50 AM 42.1826 -88.8908 264° West 262 302 7,600 -2,526 Descending FlightAware ADS-B
Fri 12:32:00 AM 42.1794 -88.9055 245° Southwest 266 306 7,200 -4,105 Descending FlightAware ADS-B
Fri 12:32:09 AM 42.1740 -88.9186 233° Southwest 270 311 6,300 -2,903 Descending FlightAware ADS-B
Fri 12:32:31 AM 42.1577 -88.9473 228° Southwest 262 302 5,700 -2,927 Descending FlightAware ADS-B
Fri 12:32:50 AM 42.1408 -88.9700 224° Southwest 262 302 4,300 -4,167 Descending FlightAware ADS-B
Fri 12:33:07 AM 42.1395 -88.9716 223° Southwest 263 303 3,200 -2,069 Descending FlightAware ADS-B
Fri 12:33:48 AM 42.0983 -89.0181 223° Southwest 268 308 2,300 -713 Descending Chicago Center
Fri 12:34:48 AM 42.0689 -89.0725 234° Southwest 214 246 2,000 -149 Descending Chicago Center
Fri 12:35:49 AM 42.1081 -89.0989 333° Northwest 170 196 2,000 -295 Level Chicago Center
Fri 12:36:50 AM 42.1531 -89.0978 North 163 188 1,400 -397 Descending Chicago Center
Fri 12:37:50 AM 42.1964 -89.0917 North 162 186 1,200 -200 Descending Chicago Center

Login

Don't have an account? Register now (free) for customized features, flight alerts, and more!